createdAt,value
2023-04-09T00:01:07.887Z,8.26
2023-04-09T00:03:36.489Z,8.39
2023-04-09T00:06:06.477Z,8.45
2023-04-09T00:08:34.729Z,8.54
2023-04-09T00:11:02.673Z,8.49
2023-04-09T00:16:01.781Z,8.47
2023-04-09T00:18:29.792Z,8.45
2023-04-09T00:20:57.651Z,8.51
2023-04-09T00:23:27.018Z,8.54
2023-04-09T00:25:54.941Z,8.50
2023-04-09T00:28:22.872Z,8.33
2023-04-09T00:30:50.914Z,8.16
2023-04-09T00:33:18.911Z,8.11
2023-04-09T00:35:46.878Z,8.17
2023-04-09T00:38:14.933Z,8.34
2023-04-09T00:40:44.391Z,8.16
2023-04-09T00:43:12.306Z,8.22
2023-04-09T00:45:40.521Z,8.26
2023-04-09T00:48:08.774Z,8.37
2023-04-09T00:50:37.235Z,8.37
2023-04-09T00:53:06.825Z,8.35
2023-04-09T00:55:35.500Z,8.30
2023-04-09T00:58:04.785Z,8.26
2023-04-09T01:00:32.721Z,8.21
2023-04-09T01:03:01.886Z,8.15
2023-04-09T01:05:35.625Z,8.14
2023-04-09T01:08:13.624Z,8.16
2023-04-09T01:10:48.200Z,8.07
2023-04-09T01:13:25.124Z,8.05
2023-04-09T01:15:57.934Z,8.01
2023-04-09T01:18:30.696Z,8.12
2023-04-09T01:21:03.340Z,8.13
2023-04-09T01:23:46.352Z,8.06
2023-04-09T01:26:30.458Z,8.06
2023-04-09T01:29:01.421Z,7.95
2023-04-09T01:31:32.205Z,7.93
2023-04-09T01:34:02.176Z,7.95
2023-04-09T01:36:32.385Z,7.92
2023-04-09T01:39:02.565Z,7.83
2023-04-09T01:41:33.545Z,7.77
2023-04-09T01:44:04.763Z,7.76
2023-04-09T01:46:34.749Z,7.80
2023-04-09T01:49:03.300Z,7.78
2023-04-09T01:51:32.611Z,7.85
2023-04-09T01:54:01.769Z,7.77
2023-04-09T01:56:29.760Z,7.77
2023-04-09T01:58:57.659Z,7.75
2023-04-09T02:01:37.148Z,7.77
2023-04-09T02:04:11.009Z,7.75
2023-04-09T02:06:43.377Z,7.66
2023-04-09T02:09:13.068Z,7.68
2023-04-09T02:11:43.387Z,7.71
2023-04-09T02:14:13.553Z,7.75
2023-04-09T02:16:43.353Z,7.74
2023-04-09T02:19:12.043Z,7.73
2023-04-09T02:21:39.967Z,7.77
2023-04-09T02:24:07.934Z,7.75
2023-04-09T02:26:35.925Z,7.71
2023-04-09T02:29:04.572Z,7.63
2023-04-09T02:31:32.637Z,7.57
2023-04-09T02:34:02.025Z,7.55
2023-04-09T02:36:29.934Z,7.50
2023-04-09T02:38:57.913Z,7.44
2023-04-09T02:41:25.924Z,7.38
2023-04-09T02:43:53.861Z,7.37
2023-04-09T02:46:22.147Z,7.31
2023-04-09T02:48:50.340Z,7.28
2023-04-09T02:51:19.980Z,7.27
2023-04-09T02:53:47.936Z,7.29
2023-04-09T02:56:15.932Z,7.26
2023-04-09T02:58:43.862Z,7.28
2023-04-09T03:01:11.869Z,7.22
2023-04-09T03:03:42.209Z,7.29
2023-04-09T03:06:10.663Z,7.31
2023-04-09T03:08:40.002Z,7.30
2023-04-09T03:11:08.110Z,7.34
2023-04-09T03:13:36.029Z,7.35
2023-04-09T03:16:03.995Z,7.38
2023-04-09T03:18:31.983Z,7.39
2023-04-09T03:21:01.154Z,7.42
2023-04-09T03:23:34.408Z,7.41
2023-04-09T03:26:06.006Z,7.29
2023-04-09T03:28:41.660Z,7.23
2023-04-09T03:31:09.648Z,7.16
2023-04-09T03:33:41.213Z,7.19
2023-04-09T03:36:10.043Z,7.18
2023-04-09T03:38:58.368Z,7.17
2023-04-09T03:41:32.809Z,7.16
2023-04-09T03:44:04.409Z,7.17
2023-04-09T03:46:39.980Z,7.16
2023-04-09T03:49:10.040Z,7.14
2023-04-09T03:51:42.608Z,7.13
2023-04-09T03:54:10.564Z,7.07
2023-04-09T03:56:41.019Z,7.05
2023-04-09T03:59:12.364Z,7.01
2023-04-09T04:01:43.600Z,6.97
2023-04-09T04:04:11.955Z,6.95
2023-04-09T04:06:47.444Z,6.94
2023-04-09T04:09:20.990Z,6.75
2023-04-09T04:11:57.034Z,6.82
2023-04-09T04:14:28.905Z,6.93
2023-04-09T04:17:04.040Z,6.88
2023-04-09T04:19:32.790Z,6.90
2023-04-09T04:22:01.306Z,6.89
2023-04-09T04:24:29.492Z,6.89
2023-04-09T04:26:58.893Z,6.78
2023-04-09T04:29:32.411Z,6.73
2023-04-09T04:32:02.403Z,6.69
2023-04-09T04:34:36.167Z,6.67
2023-04-09T04:37:14.922Z,6.76
2023-04-09T04:39:42.922Z,6.74
2023-04-09T04:42:16.983Z,6.80
2023-04-09T04:44:46.209Z,6.79
2023-04-09T04:47:30.212Z,6.82
2023-04-09T04:49:59.784Z,6.79
2023-04-09T04:52:27.883Z,6.80
2023-04-09T04:54:55.875Z,6.75
2023-04-09T04:57:26.735Z,6.73
2023-04-09T04:59:55.358Z,6.72
2023-04-09T05:02:23.453Z,6.63
2023-04-09T05:05:11.681Z,6.59
2023-04-09T05:07:45.821Z,6.60
2023-04-09T05:10:13.852Z,6.67
2023-04-09T05:12:45.188Z,6.63
2023-04-09T05:15:20.214Z,6.56
2023-04-09T05:17:48.163Z,6.54
2023-04-09T05:20:17.705Z,6.66
2023-04-09T05:23:04.783Z,6.63
2023-04-09T05:25:38.382Z,6.66
2023-04-09T05:28:11.224Z,6.66
2023-04-09T05:30:40.065Z,6.64
2023-04-09T05:33:09.072Z,6.71
2023-04-09T05:35:39.831Z,6.75
2023-04-09T05:38:08.016Z,6.78
2023-04-09T05:40:36.406Z,6.79
2023-04-09T05:43:09.442Z,5.99
2023-04-09T05:45:41.885Z,5.69
2023-04-09T05:48:10.274Z,5.82
2023-04-09T05:50:53.389Z,6.10
2023-04-09T05:53:22.463Z,6.28
2023-04-09T05:55:50.463Z,6.42
2023-04-09T05:58:22.183Z,6.50
2023-04-09T06:00:51.697Z,6.50
2023-04-09T06:03:20.057Z,6.47
2023-04-09T06:05:48.456Z,6.47
2023-04-09T06:08:16.661Z,6.41
2023-04-09T06:10:44.593Z,6.42
2023-04-09T06:13:12.575Z,6.56
2023-04-09T06:15:42.016Z,6.66
2023-04-09T06:18:10.004Z,6.60
2023-04-09T06:20:38.004Z,6.62
2023-04-09T06:23:06.280Z,6.45
2023-04-09T06:25:34.380Z,6.41
2023-04-09T06:28:03.077Z,6.43
2023-04-09T06:30:32.111Z,6.52
2023-04-09T06:33:01.457Z,6.73
2023-04-09T06:35:29.407Z,6.73
2023-04-09T06:37:57.386Z,6.79
2023-04-09T06:40:25.310Z,6.96
2023-04-09T06:42:53.201Z,6.97
2023-04-09T06:45:25.432Z,7.02
2023-04-09T06:47:53.562Z,7.23
2023-04-09T06:50:22.874Z,7.38
2023-04-09T06:52:50.852Z,7.37
2023-04-09T06:55:18.896Z,7.37
2023-04-09T06:57:46.883Z,7.53
2023-04-09T07:00:15.592Z,7.69
2023-04-09T07:02:43.747Z,7.74
2023-04-09T07:05:11.933Z,7.72
2023-04-09T07:07:41.246Z,7.94
2023-04-09T07:10:10.210Z,8.13
2023-04-09T07:12:38.141Z,8.36
2023-04-09T07:15:07.644Z,8.48
2023-04-09T07:17:36.258Z,8.23
2023-04-09T07:20:04.541Z,8.18
2023-04-09T07:22:32.426Z,8.27
2023-04-09T07:25:01.767Z,8.51
2023-04-09T07:27:30.268Z,8.54
2023-04-09T07:29:59.026Z,8.62
2023-04-09T07:32:28.562Z,8.79
2023-04-09T07:34:57.395Z,8.81
2023-04-09T07:37:25.371Z,9.04
2023-04-09T07:39:53.502Z,9.16
2023-04-09T07:42:22.960Z,9.15
2023-04-09T07:44:51.449Z,9.33
2023-04-09T07:47:19.355Z,9.22
2023-04-09T07:49:47.252Z,9.06
2023-04-09T07:52:15.436Z,9.08
2023-04-09T07:54:43.308Z,9.16
2023-04-09T07:57:11.320Z,9.24
2023-04-09T07:59:40.624Z,9.16
2023-04-09T08:02:08.988Z,9.28
2023-04-09T08:04:37.183Z,9.43
2023-04-09T08:07:05.428Z,9.46
2023-04-09T08:09:33.492Z,9.36
2023-04-09T08:12:01.425Z,9.60
2023-04-09T08:14:29.368Z,9.74
2023-04-09T08:16:58.691Z,9.80
2023-04-09T08:19:26.706Z,9.82
2023-04-09T08:21:54.615Z,9.73
2023-04-09T08:24:22.592Z,9.93
2023-04-09T08:26:50.526Z,10.20
2023-04-09T08:29:18.591Z,10.24
2023-04-09T08:31:46.535Z,10.53
2023-04-09T08:34:17.446Z,10.63
2023-04-09T08:36:47.326Z,10.37
2023-04-09T08:39:16.458Z,10.04
2023-04-09T08:41:45.060Z,10.31
2023-04-09T08:44:13.341Z,10.66
2023-04-09T08:46:41.401Z,10.67
2023-04-09T08:49:10.247Z,10.63
2023-04-09T08:51:40.381Z,10.65
2023-04-09T08:54:08.547Z,10.59
2023-04-09T08:56:36.844Z,10.26
2023-04-09T08:59:05.529Z,10.33
2023-04-09T09:01:34.056Z,10.58
2023-04-09T09:04:04.161Z,10.68
2023-04-09T09:06:34.148Z,10.63
2023-04-09T09:09:06.641Z,10.63
2023-04-09T09:11:35.452Z,10.81
2023-04-09T09:14:04.907Z,10.91
2023-04-09T09:16:34.820Z,11.05
2023-04-09T09:19:03.609Z,11.06
2023-04-09T09:21:31.655Z,10.89
2023-04-09T09:23:59.663Z,10.77
2023-04-09T09:26:30.426Z,10.95
2023-04-09T09:28:59.434Z,10.97
2023-04-09T09:31:27.916Z,11.07
2023-04-09T09:33:56.503Z,11.18
2023-04-09T09:36:34.664Z,11.16
2023-04-09T09:39:08.305Z,11.26
2023-04-09T09:41:38.026Z,11.36
2023-04-09T09:44:07.262Z,11.47
2023-04-09T09:46:37.350Z,11.38
2023-04-09T09:49:05.880Z,11.46
2023-04-09T09:51:36.935Z,11.64
2023-04-09T09:54:08.089Z,11.75
2023-04-09T09:56:42.677Z,11.71
2023-04-09T09:59:17.852Z,11.76
2023-04-09T10:01:48.388Z,11.91
2023-04-09T10:04:17.525Z,11.73
2023-04-09T10:06:46.515Z,11.78
2023-04-09T10:09:14.836Z,11.99
2023-04-09T10:11:45.654Z,11.95
2023-04-09T10:14:14.788Z,11.96
2023-04-09T10:16:43.023Z,12.06
2023-04-09T10:19:14.215Z,12.05
2023-04-09T10:21:47.709Z,11.94
2023-04-09T10:24:17.158Z,12.13
2023-04-09T10:26:46.983Z,12.31
2023-04-09T10:29:16.689Z,12.42
2023-04-09T10:31:50.019Z,12.44
2023-04-09T10:34:19.518Z,12.35
2023-04-09T10:36:53.041Z,12.42
2023-04-09T10:39:21.456Z,12.48
2023-04-09T10:41:51.515Z,12.54
2023-04-09T10:44:23.184Z,12.54
2023-04-09T10:46:51.399Z,12.59
2023-04-09T10:49:21.004Z,12.56
2023-04-09T10:52:04.645Z,12.66
2023-04-09T10:54:43.595Z,12.76
2023-04-09T10:57:14.699Z,12.81
2023-04-09T10:59:45.134Z,12.97
2023-04-09T11:02:44.054Z,13.11
2023-04-09T11:05:20.943Z,13.00
2023-04-09T11:07:58.569Z,12.89
2023-04-09T11:10:26.819Z,12.87
2023-04-09T11:12:56.135Z,12.87
2023-04-09T11:15:24.041Z,12.91
2023-04-09T11:17:52.121Z,13.07
2023-04-09T11:20:23.610Z,13.20
2023-04-09T11:22:53.144Z,13.17
2023-04-09T11:25:22.141Z,13.24
2023-04-09T11:27:50.917Z,13.28
2023-04-09T11:30:21.381Z,13.21
2023-04-09T11:32:49.911Z,13.42
2023-04-09T11:35:19.258Z,13.69
2023-04-09T11:37:48.108Z,13.80
2023-04-09T11:40:17.809Z,13.85
2023-04-09T11:42:46.625Z,13.88
2023-04-09T11:45:16.268Z,13.92
2023-04-09T11:47:46.777Z,13.68
2023-04-09T11:50:16.274Z,13.52
2023-04-09T11:52:45.765Z,13.55
2023-04-09T11:55:23.259Z,13.61
2023-04-09T11:57:53.150Z,13.84
2023-04-09T12:00:21.697Z,14.01
2023-04-09T12:02:52.179Z,13.70
2023-04-09T12:05:24.775Z,13.80
2023-04-09T12:07:56.576Z,14.01
2023-04-09T12:10:29.042Z,14.08
2023-04-09T12:13:02.464Z,14.02
2023-04-09T12:15:33.737Z,13.91
2023-04-09T12:18:03.676Z,13.83
2023-04-09T12:20:34.509Z,13.88
2023-04-09T12:23:03.909Z,13.90
2023-04-09T12:25:32.468Z,13.96
2023-04-09T12:28:00.542Z,14.00
2023-04-09T12:30:28.562Z,14.04
2023-04-09T12:32:57.070Z,14.03
2023-04-09T12:35:26.978Z,14.07
2023-04-09T12:37:54.891Z,14.15
2023-04-09T12:40:23.515Z,14.18
2023-04-09T12:42:51.725Z,14.28
2023-04-09T12:45:21.158Z,14.15
2023-04-09T12:47:49.465Z,14.17
2023-04-09T12:50:17.822Z,14.29
2023-04-09T12:52:47.221Z,14.40
2023-04-09T12:55:16.140Z,14.32
2023-04-09T12:57:45.844Z,14.46
2023-04-09T13:00:14.988Z,14.52
2023-04-09T13:02:43.141Z,14.43
2023-04-09T13:05:11.544Z,14.44
2023-04-09T13:07:41.497Z,14.59
2023-04-09T13:10:12.232Z,14.59
2023-04-09T13:12:40.211Z,14.68
2023-04-09T13:15:08.697Z,14.89
2023-04-09T13:17:36.662Z,15.10
2023-04-09T13:20:05.094Z,15.23
2023-04-09T13:22:33.024Z,15.49
2023-04-09T13:25:01.118Z,15.63
2023-04-09T13:27:30.438Z,15.71
2023-04-09T13:29:58.388Z,15.74
2023-04-09T13:32:26.776Z,15.85
2023-04-09T13:34:57.923Z,15.92
2023-04-09T13:37:26.483Z,15.84
2023-04-09T13:39:55.604Z,16.01
2023-04-09T13:42:24.009Z,16.14
2023-04-09T13:44:53.738Z,16.23
2023-04-09T13:47:23.956Z,16.35
2023-04-09T13:49:53.134Z,16.36
2023-04-09T13:52:21.181Z,16.21
2023-04-09T13:54:49.525Z,16.38
2023-04-09T13:57:17.880Z,16.49
2023-04-09T13:59:45.862Z,16.43
2023-04-09T14:02:15.442Z,16.52
2023-04-09T14:04:43.540Z,16.82
2023-04-09T14:07:11.654Z,16.96
2023-04-09T14:09:39.603Z,17.13
2023-04-09T14:12:07.601Z,17.27
2023-04-09T14:14:35.655Z,17.28
2023-04-09T14:17:03.545Z,17.38
2023-04-09T14:19:32.819Z,17.30
2023-04-09T14:22:00.850Z,17.39
2023-04-09T14:24:28.770Z,17.59
2023-04-09T14:26:56.903Z,17.77
2023-04-09T14:29:24.834Z,17.72
2023-04-09T14:31:54.242Z,17.84
2023-04-09T14:34:23.190Z,17.84
2023-04-09T14:36:52.460Z,17.99
2023-04-09T14:39:20.463Z,17.92
2023-04-09T14:41:48.425Z,18.00
2023-04-09T14:44:16.334Z,18.23
2023-04-09T14:46:44.600Z,18.19
2023-04-09T14:49:12.569Z,18.05
2023-04-09T14:51:40.663Z,17.81
2023-04-09T14:54:09.986Z,17.73
2023-04-09T14:56:37.909Z,17.64
2023-04-09T14:59:05.903Z,17.84
2023-04-09T15:01:33.894Z,17.77
2023-04-09T15:04:01.909Z,17.88
2023-04-09T15:06:31.379Z,17.88
2023-04-09T15:08:59.278Z,17.77
2023-04-09T15:11:29.458Z,17.64
2023-04-09T15:13:57.995Z,17.42
2023-04-09T15:16:28.072Z,17.78
2023-04-09T15:18:58.860Z,17.82
2023-04-09T15:21:28.540Z,17.76
2023-04-09T15:23:58.934Z,17.75
2023-04-09T15:26:29.054Z,17.60
2023-04-09T15:29:02.345Z,17.43
2023-04-09T15:31:30.624Z,17.62
2023-04-09T15:33:58.666Z,17.70
2023-04-09T15:36:27.136Z,17.59
2023-04-09T15:38:55.403Z,17.53
2023-04-09T15:41:24.005Z,17.37
2023-04-09T15:43:53.704Z,17.31
2023-04-09T15:46:21.901Z,17.42
2023-04-09T15:48:49.898Z,17.62
2023-04-09T15:51:17.850Z,17.76
2023-04-09T15:53:45.945Z,17.90
2023-04-09T15:56:15.274Z,17.65
2023-04-09T15:58:43.894Z,17.59
2023-04-09T16:01:13.531Z,17.73
2023-04-09T16:03:41.742Z,17.80
2023-04-09T16:06:13.369Z,17.73
2023-04-09T16:08:41.469Z,17.86
2023-04-09T16:11:09.587Z,17.83
2023-04-09T16:13:38.028Z,17.67
2023-04-09T16:16:07.541Z,17.76
2023-04-09T16:18:37.539Z,17.89
2023-04-09T16:21:06.059Z,17.83
2023-04-09T16:23:34.079Z,17.61
2023-04-09T16:26:02.023Z,17.66
2023-04-09T16:28:30.162Z,17.86
2023-04-09T16:30:58.177Z,18.02
2023-04-09T16:33:26.290Z,18.24
2023-04-09T16:35:55.576Z,18.18
2023-04-09T16:38:24.712Z,18.16
2023-04-09T16:40:52.633Z,18.14
2023-04-09T16:43:20.550Z,18.10
2023-04-09T16:45:48.483Z,18.05
2023-04-09T16:48:16.459Z,18.24
2023-04-09T16:50:44.419Z,18.33
2023-04-09T16:53:13.708Z,18.27
2023-04-09T16:55:41.646Z,18.42
2023-04-09T16:58:09.542Z,17.91
2023-04-09T17:00:37.621Z,18.01
2023-04-09T17:03:05.606Z,18.00
2023-04-09T17:05:33.865Z,17.78
2023-04-09T17:08:01.918Z,17.85
2023-04-09T17:10:31.300Z,17.96
2023-04-09T17:12:59.222Z,18.05
2023-04-09T17:15:27.315Z,17.91
2023-04-09T17:17:55.311Z,17.72
2023-04-09T17:20:24.948Z,17.55
2023-04-09T17:22:53.036Z,17.54
2023-04-09T17:25:21.490Z,17.50
2023-04-09T17:27:51.694Z,17.39
2023-04-09T17:30:19.619Z,17.27
2023-04-09T17:32:47.844Z,17.21
2023-04-09T17:35:15.799Z,16.91
2023-04-09T17:37:43.783Z,16.97
2023-04-09T17:40:15.095Z,17.05
2023-04-09T17:42:43.015Z,16.94
2023-04-09T17:45:13.082Z,16.73
2023-04-09T17:47:41.263Z,16.51
2023-04-09T17:50:10.390Z,16.34
2023-04-09T17:52:38.854Z,16.27
2023-04-09T17:55:08.132Z,16.11
2023-04-09T17:57:36.614Z,16.03
2023-04-09T18:00:05.205Z,15.95
2023-04-09T18:02:35.275Z,15.62
2023-04-09T18:05:04.860Z,15.44
2023-04-09T18:07:34.402Z,15.44
2023-04-09T18:10:02.928Z,15.38
2023-04-09T18:12:30.930Z,15.39
2023-04-09T18:14:58.815Z,15.34
2023-04-09T18:17:27.289Z,15.30
2023-04-09T18:19:58.459Z,15.23
2023-04-09T18:22:26.963Z,15.15
2023-04-09T18:24:55.281Z,15.03
2023-04-09T18:27:23.223Z,15.00
2023-04-09T18:29:51.118Z,14.94
2023-04-09T18:32:20.205Z,14.86
2023-04-09T18:34:48.614Z,14.80
2023-04-09T18:37:17.904Z,14.62
2023-04-09T18:39:46.031Z,14.54
2023-04-09T18:42:14.477Z,14.47
2023-04-09T18:44:42.622Z,14.34
2023-04-09T18:47:11.872Z,14.23
2023-04-09T18:49:39.781Z,14.19
2023-04-09T18:52:09.219Z,14.02
2023-04-09T18:54:38.960Z,14.08
2023-04-09T18:57:07.461Z,13.95
2023-04-09T18:59:35.879Z,13.92
2023-04-09T19:02:05.035Z,14.02
2023-04-09T19:04:36.329Z,13.93
2023-04-09T19:07:04.598Z,13.87
2023-04-09T19:09:33.146Z,13.83
2023-04-09T19:12:02.756Z,13.89
2023-04-09T19:14:30.693Z,13.85
2023-04-09T19:16:58.775Z,13.67
2023-04-09T19:19:27.436Z,13.75
2023-04-09T19:21:55.366Z,13.75
2023-04-09T19:24:23.656Z,13.70
2023-04-09T19:26:53.039Z,13.60
2023-04-09T19:29:22.295Z,13.61
2023-04-09T19:31:50.466Z,13.66
2023-04-09T19:34:18.442Z,13.63
2023-04-09T19:36:46.304Z,13.62
2023-04-09T19:39:15.216Z,13.55
2023-04-09T19:41:43.192Z,13.59
2023-04-09T19:44:11.401Z,13.59
2023-04-09T19:46:41.027Z,13.56
2023-04-09T19:49:09.067Z,13.51
2023-04-09T19:51:36.973Z,13.48
2023-04-09T19:54:05.073Z,13.49
2023-04-09T19:56:33.098Z,13.50
2023-04-09T19:59:01.031Z,13.42
2023-04-09T20:01:29.109Z,13.43
2023-04-09T20:03:58.626Z,13.47
2023-04-09T20:06:27.157Z,13.43
2023-04-09T20:08:56.031Z,13.37
2023-04-09T20:11:24.041Z,13.35
2023-04-09T20:13:52.050Z,13.31
2023-04-09T20:16:20.179Z,13.31
2023-04-09T20:18:48.151Z,13.02
2023-04-09T20:21:17.611Z,12.91
2023-04-09T20:23:46.364Z,12.90
2023-04-09T20:26:14.396Z,12.85
2023-04-09T20:28:42.320Z,12.72
2023-04-09T20:31:10.249Z,12.54
2023-04-09T20:33:38.158Z,12.53
2023-04-09T20:36:15.284Z,12.50
2023-04-09T20:38:44.622Z,12.41
2023-04-09T20:41:12.568Z,12.34
2023-04-09T20:43:40.540Z,12.34
2023-04-09T20:46:08.540Z,12.30
2023-04-09T20:48:36.578Z,12.24
2023-04-09T20:51:09.210Z,12.20
2023-04-09T20:53:37.553Z,12.21
2023-04-09T20:56:07.397Z,12.19
2023-04-09T20:58:35.548Z,12.16
2023-04-09T21:01:06.497Z,12.10
2023-04-09T21:03:34.961Z,11.94
2023-04-09T21:06:03.354Z,11.70
2023-04-09T21:08:31.437Z,11.60
2023-04-09T21:10:59.635Z,11.57
2023-04-09T21:13:28.909Z,11.58
2023-04-09T21:15:58.113Z,11.55
2023-04-09T21:18:26.228Z,11.54
2023-04-09T21:20:54.112Z,11.42
2023-04-09T21:23:22.161Z,11.40
2023-04-09T21:25:50.057Z,11.41
2023-04-09T21:28:18.088Z,11.50
2023-04-09T21:30:47.778Z,11.58
2023-04-09T21:33:15.791Z,11.64
2023-04-09T21:35:43.697Z,11.60
2023-04-09T21:38:11.654Z,11.66
2023-04-09T21:40:39.607Z,11.67
2023-04-09T21:43:08.831Z,11.61
2023-04-09T21:45:36.754Z,11.62
2023-04-09T21:48:06.368Z,11.66
2023-04-09T21:50:34.268Z,11.57
2023-04-09T21:53:03.200Z,11.24
2023-04-09T21:55:31.297Z,10.90
2023-04-09T21:57:59.193Z,10.84
2023-04-09T22:00:27.615Z,10.89
2023-04-09T22:03:00.981Z,10.99
2023-04-09T22:05:31.081Z,11.02
2023-04-09T22:07:59.175Z,11.06
2023-04-09T22:10:28.247Z,11.21
2023-04-09T22:12:56.465Z,11.25
2023-04-09T22:15:24.471Z,11.25
2023-04-09T22:17:52.848Z,11.27
2023-04-09T22:20:21.237Z,11.20
2023-04-09T22:22:50.533Z,11.11
2023-04-09T22:25:18.452Z,11.07
2023-04-09T22:27:50.612Z,11.00
2023-04-09T22:30:18.625Z,10.99
2023-04-09T22:32:46.577Z,10.96
2023-04-09T22:35:18.086Z,10.99
2023-04-09T22:37:47.248Z,10.86
2023-04-09T22:40:17.288Z,10.81
2023-04-09T22:42:47.215Z,10.90
2023-04-09T22:45:15.730Z,10.99
2023-04-09T22:47:43.770Z,10.98
2023-04-09T22:50:13.515Z,10.90
2023-04-09T22:52:41.485Z,10.84
2023-04-09T22:55:11.034Z,10.75
2023-04-09T22:57:43.025Z,10.76
2023-04-09T23:00:11.541Z,10.73
2023-04-09T23:02:39.615Z,10.75
2023-04-09T23:05:08.950Z,10.76
2023-04-09T23:07:36.946Z,10.75
2023-04-09T23:10:05.100Z,10.76
2023-04-09T23:12:33.024Z,10.69
2023-04-09T23:15:02.412Z,10.67
2023-04-09T23:17:30.488Z,10.66
2023-04-09T23:19:58.419Z,10.66
2023-04-09T23:22:27.319Z,10.72
2023-04-09T23:24:55.395Z,10.71
2023-04-09T23:27:28.245Z,10.66
2023-04-09T23:29:56.628Z,10.52
2023-04-09T23:32:25.948Z,10.47
2023-04-09T23:34:53.904Z,10.54
2023-04-09T23:37:21.849Z,10.47
2023-04-09T23:39:49.833Z,10.29
2023-04-09T23:42:17.797Z,10.32
2023-04-09T23:44:45.743Z,10.31
2023-04-09T23:47:14.084Z,10.31
2023-04-09T23:49:43.822Z,10.39
2023-04-09T23:52:11.706Z,10.44
2023-04-09T23:54:39.626Z,10.32
2023-04-09T23:57:07.565Z,10.28
2023-04-09T23:59:36.009Z,10.21
